createdAt,value
2022-10-13T00:00:43.035Z,11.67
2022-10-13T00:03:09.964Z,11.47
2022-10-13T00:05:44.615Z,11.20
2022-10-13T00:08:12.970Z,11.03
2022-10-13T00:10:40.588Z,10.93
2022-10-13T00:13:08.558Z,12.33
2022-10-13T00:15:43.388Z,10.60
2022-10-13T00:18:10.238Z,11.10
2022-10-13T00:20:42.182Z,12.27
2022-10-13T00:23:08.972Z,11.40
2022-10-13T00:25:35.661Z,11.30
2022-10-13T00:28:02.400Z,10.87
2022-10-13T00:30:29.154Z,11.00
2022-10-13T00:32:55.812Z,12.40
2022-10-13T00:35:22.486Z,12.10
2022-10-13T00:37:49.174Z,12.30
2022-10-13T00:40:16.041Z,11.73
2022-10-13T00:42:42.751Z,11.80
2022-10-13T00:45:29.479Z,12.63
2022-10-13T00:48:01.785Z,11.80
2022-10-13T00:50:35.482Z,11.30
2022-10-13T00:53:02.653Z,12.30
2022-10-13T00:55:33.814Z,12.00
2022-10-13T00:58:05.418Z,11.00
2022-10-13T01:00:34.149Z,11.60
2022-10-13T01:03:02.200Z,12.30
2022-10-13T01:05:30.298Z,12.43
2022-10-13T01:07:58.137Z,11.40
2022-10-13T01:10:54.887Z,11.03
2022-10-13T01:13:34.614Z,12.77
2022-10-13T01:16:13.898Z,11.40
2022-10-13T01:18:50.724Z,11.33
2022-10-13T01:21:26.330Z,12.17
2022-10-13T01:24:09.936Z,10.57
2022-10-13T01:26:58.210Z,12.20
2022-10-13T01:29:50.216Z,12.60
2022-10-13T01:32:41.396Z,11.80
2022-10-13T01:35:17.969Z,11.37
2022-10-13T01:38:24.088Z,10.60
2022-10-13T01:41:10.846Z,12.13
2022-10-13T01:44:06.494Z,10.40
2022-10-13T01:46:37.567Z,11.70
2022-10-13T01:49:09.399Z,11.87
2022-10-13T01:51:37.131Z,12.13
2022-10-13T01:54:04.082Z,11.40
2022-10-13T01:56:30.775Z,11.03
2022-10-13T01:59:01.423Z,12.37
2022-10-13T02:01:48.414Z,12.30
2022-10-13T02:04:30.358Z,12.17
2022-10-13T02:07:04.208Z,12.60
2022-10-13T02:09:43.537Z,12.10
2022-10-13T02:12:19.033Z,11.73
2022-10-13T02:14:46.887Z,12.60
2022-10-13T02:17:17.406Z,12.73
2022-10-13T02:19:45.016Z,12.10
2022-10-13T02:22:15.071Z,11.50
2022-10-13T02:24:42.041Z,11.83
2022-10-13T02:27:09.451Z,12.73
2022-10-13T02:29:52.620Z,12.33
2022-10-13T02:32:20.191Z,12.43
2022-10-13T02:34:47.179Z,12.27
2022-10-13T02:37:13.987Z,12.33
2022-10-13T02:39:40.802Z,13.00
2022-10-13T02:42:07.793Z,13.77
2022-10-13T02:44:34.619Z,12.97
2022-10-13T02:47:01.360Z,12.97
2022-10-13T02:49:28.101Z,13.77
2022-10-13T02:51:54.815Z,12.30
2022-10-13T02:54:21.470Z,13.20
2022-10-13T02:56:48.277Z,12.40
2022-10-13T02:59:15.032Z,13.20
2022-10-13T03:01:42.073Z,13.37
2022-10-13T03:04:09.922Z,12.47
2022-10-13T03:06:37.017Z,13.17
2022-10-13T03:09:04.400Z,12.30
2022-10-13T03:11:31.079Z,11.80
2022-10-13T03:13:57.782Z,13.73
2022-10-13T03:16:24.504Z,13.30
2022-10-13T03:18:51.167Z,12.33
2022-10-13T03:21:17.904Z,13.00
2022-10-13T03:23:44.706Z,12.30
2022-10-13T03:26:11.429Z,11.70
2022-10-13T03:28:38.138Z,12.87
2022-10-13T03:31:07.637Z,12.30
2022-10-13T03:33:34.760Z,12.50
2022-10-13T03:36:03.378Z,13.10
2022-10-13T03:38:31.685Z,12.50
2022-10-13T03:40:58.419Z,12.43
2022-10-13T03:43:25.269Z,13.70
2022-10-13T03:45:59.346Z,13.77
2022-10-13T03:48:27.082Z,12.63
2022-10-13T03:50:54.029Z,13.90
2022-10-13T03:53:20.799Z,13.13
2022-10-13T03:55:56.122Z,12.60
2022-10-13T03:58:24.564Z,14.43
2022-10-13T04:00:52.157Z,12.37
2022-10-13T04:03:18.919Z,12.87
2022-10-13T04:05:46.532Z,13.47
2022-10-13T04:08:14.301Z,13.00
2022-10-13T04:10:41.274Z,12.40
2022-10-13T04:13:08.554Z,12.40
2022-10-13T04:15:39.239Z,13.27
2022-10-13T04:18:07.322Z,13.60
2022-10-13T04:20:40.996Z,12.63
2022-10-13T04:23:08.303Z,13.33
2022-10-13T04:25:38.967Z,14.40
2022-10-13T04:28:06.887Z,14.27
2022-10-13T04:30:36.752Z,14.60
2022-10-13T04:33:03.565Z,13.87
2022-10-13T04:35:30.602Z,14.70
2022-10-13T04:38:00.298Z,14.00
2022-10-13T04:40:28.161Z,12.63
2022-10-13T04:42:54.904Z,15.30
2022-10-13T04:45:21.643Z,13.37
2022-10-13T04:47:48.418Z,14.80
2022-10-13T04:50:15.152Z,12.73
2022-10-13T04:52:41.931Z,13.17
2022-10-13T04:55:09.082Z,20.70
2022-10-13T04:57:35.982Z,13.87
2022-10-13T05:00:03.926Z,13.30
2022-10-13T05:02:30.619Z,13.20
2022-10-13T05:04:57.342Z,12.50
2022-10-13T05:07:24.070Z,12.00
2022-10-13T05:09:51.992Z,13.53
2022-10-13T05:12:19.118Z,12.67
2022-10-13T05:14:46.227Z,13.07
2022-10-13T05:17:12.931Z,12.77
2022-10-13T05:19:39.658Z,12.53
2022-10-13T05:22:06.549Z,12.13
2022-10-13T05:24:39.037Z,12.97
2022-10-13T05:27:07.383Z,12.90
2022-10-13T05:29:34.102Z,12.43
2022-10-13T05:32:00.893Z,12.90
2022-10-13T05:34:27.844Z,12.00
2022-10-13T05:36:54.569Z,12.80
2022-10-13T05:39:21.385Z,11.83
2022-10-13T05:41:48.057Z,12.40
2022-10-13T05:44:16.607Z,13.57
2022-10-13T05:46:44.207Z,11.20
2022-10-13T05:49:11.149Z,11.03
2022-10-13T05:51:46.801Z,11.77
2022-10-13T05:54:31.060Z,11.30
2022-10-13T05:57:08.634Z,10.90
2022-10-13T05:59:41.687Z,11.40
2022-10-13T06:02:11.379Z,10.60
2022-10-13T06:04:43.419Z,11.40
2022-10-13T06:07:10.396Z,11.60
2022-10-13T06:09:39.106Z,11.73
2022-10-13T06:12:06.782Z,11.77
2022-10-13T06:14:33.998Z,12.00
2022-10-13T06:17:00.867Z,12.10
2022-10-13T06:19:27.631Z,14.10
2022-10-13T06:21:54.334Z,11.10
2022-10-13T06:24:21.028Z,12.10
2022-10-13T06:26:47.849Z,11.80
2022-10-13T06:29:14.701Z,11.30
2022-10-13T06:31:41.613Z,11.00
2022-10-13T06:34:08.558Z,12.30
2022-10-13T06:36:35.263Z,11.93
2022-10-13T06:39:01.995Z,11.17
2022-10-13T06:41:28.702Z,11.87
2022-10-13T06:43:55.447Z,10.13
2022-10-13T06:46:22.177Z,11.67
2022-10-13T06:48:52.816Z,12.20
2022-10-13T06:51:19.538Z,12.30
2022-10-13T06:53:46.294Z,11.63
2022-10-13T06:56:13.181Z,12.77
2022-10-13T06:58:40.750Z,12.77
2022-10-13T07:01:07.595Z,11.30
2022-10-13T07:03:34.377Z,10.60
2022-10-13T07:06:05.976Z,11.50
2022-10-13T07:08:33.999Z,10.70
2022-10-13T07:11:09.523Z,10.80
2022-10-13T07:13:42.208Z,10.90
2022-10-13T07:16:12.101Z,11.83
2022-10-13T07:18:38.817Z,13.90
2022-10-13T07:21:06.774Z,10.80
2022-10-13T07:23:33.526Z,12.10
2022-10-13T07:26:01.153Z,11.30
2022-10-13T07:28:28.248Z,11.83
2022-10-13T07:30:55.089Z,11.53
2022-10-13T07:33:22.095Z,11.23
2022-10-13T07:35:48.848Z,11.33
2022-10-13T07:38:15.537Z,10.57
2022-10-13T07:40:42.378Z,10.80
2022-10-13T07:43:09.033Z,11.57
2022-10-13T07:45:35.831Z,10.30
2022-10-13T07:48:02.534Z,11.20
2022-10-13T07:50:29.657Z,10.80
2022-10-13T07:52:56.301Z,11.77
2022-10-13T07:55:23.010Z,10.77
2022-10-13T07:57:49.673Z,10.60
2022-10-13T08:00:16.570Z,10.57
2022-10-13T08:02:43.329Z,10.67
2022-10-13T08:05:10.061Z,11.93
2022-10-13T08:07:39.244Z,12.50
2022-10-13T08:10:06.737Z,11.60
2022-10-13T08:12:35.900Z,12.00
2022-10-13T08:15:06.112Z,11.53
2022-10-13T08:17:33.742Z,10.90
2022-10-13T08:20:00.407Z,12.10
2022-10-13T08:22:28.399Z,22.27
2022-10-13T08:24:56.023Z,11.73
2022-10-13T08:27:26.631Z,11.70
2022-10-13T08:30:04.860Z,10.80
2022-10-13T08:32:31.743Z,11.43
2022-10-13T08:34:58.418Z,11.10
2022-10-13T08:37:25.158Z,11.20
2022-10-13T08:39:56.987Z,11.07
2022-10-13T08:42:23.699Z,11.87
2022-10-13T08:47:51.023Z,10.43
2022-10-13T08:50:24.425Z,12.50
2022-10-13T08:53:05.126Z,11.00
2022-10-13T08:55:48.856Z,11.20
2022-10-13T08:58:24.649Z,10.97
2022-10-13T09:01:24.909Z,12.13
2022-10-13T09:03:55.472Z,11.23
2022-10-13T09:06:51.677Z,12.30
2022-10-13T09:09:18.578Z,11.63
2022-10-13T09:11:47.939Z,10.70
2022-10-13T09:14:29.986Z,11.17
2022-10-13T09:19:56.777Z,10.97
2022-10-13T09:22:27.471Z,11.13
2022-10-13T09:25:15.310Z,11.93
2022-10-13T09:27:47.206Z,10.90
2022-10-13T09:30:40.242Z,10.60
2022-10-13T09:33:12.794Z,12.17
2022-10-13T09:35:46.596Z,11.07
2022-10-13T09:38:22.640Z,11.33
2022-10-13T09:41:09.550Z,10.83
2022-10-13T09:43:47.357Z,10.83
2022-10-13T09:46:20.768Z,11.67
2022-10-13T09:48:53.559Z,11.00
2022-10-13T09:51:33.870Z,11.77
2022-10-13T09:54:01.068Z,11.90
2022-10-13T09:56:42.327Z,11.97
2022-10-13T09:59:47.687Z,11.43
2022-10-13T10:02:45.605Z,11.07
2022-10-13T10:05:30.579Z,11.37
2022-10-13T10:08:04.085Z,12.60
2022-10-13T10:10:37.022Z,11.83
2022-10-13T10:13:04.198Z,11.50
2022-10-13T10:15:47.599Z,11.10
2022-10-13T10:18:25.260Z,11.10
2022-10-13T10:21:07.758Z,10.80
2022-10-13T10:23:46.165Z,10.00
2022-10-13T10:26:23.208Z,11.73
2022-10-13T10:29:11.829Z,11.40
2022-10-13T10:32:08.946Z,11.27
2022-10-13T10:34:48.244Z,11.07
2022-10-13T10:37:21.371Z,9.90
2022-10-13T10:40:28.874Z,10.53
2022-10-13T10:43:20.527Z,11.00
2022-10-13T10:45:48.869Z,9.80
2022-10-13T10:48:38.690Z,10.90
2022-10-13T10:51:08.431Z,9.77
2022-10-13T10:53:42.707Z,9.73
2022-10-13T10:56:52.625Z,10.30
2022-10-13T10:59:37.566Z,9.93
2022-10-13T11:02:07.201Z,9.77
2022-10-13T11:04:44.030Z,9.10
2022-10-13T11:07:34.475Z,9.70
2022-10-13T11:10:04.031Z,9.43
2022-10-13T11:12:50.992Z,9.93
2022-10-13T11:15:40.578Z,9.03
2022-10-13T11:18:45.429Z,10.10
2022-10-13T11:21:12.124Z,8.80
2022-10-13T11:23:49.109Z,8.93
2022-10-13T11:26:41.716Z,10.83
2022-10-13T11:29:18.880Z,9.50
2022-10-13T11:31:54.356Z,8.60
2022-10-13T11:34:29.802Z,9.50
2022-10-13T11:36:58.930Z,9.90
2022-10-13T11:39:28.582Z,10.10
2022-10-13T11:42:05.435Z,10.40
2022-10-13T11:44:47.816Z,7.87
2022-10-13T11:47:54.040Z,9.20
2022-10-13T11:50:30.159Z,9.40
2022-10-13T11:53:19.796Z,10.50
2022-10-13T11:55:57.886Z,8.93
2022-10-13T11:58:30.338Z,8.10
2022-10-13T12:01:08.785Z,6.73
2022-10-13T12:03:43.479Z,5.80
2022-10-13T12:06:47.191Z,5.50
2022-10-13T12:09:19.131Z,6.67
2022-10-13T12:11:46.265Z,5.20
2022-10-13T12:14:35.860Z,5.40
2022-10-13T12:17:02.684Z,5.53
2022-10-13T12:19:31.871Z,4.80
2022-10-13T12:22:01.291Z,5.03
2022-10-13T12:24:30.473Z,5.53
2022-10-13T12:26:58.629Z,5.17
2022-10-13T12:29:30.173Z,5.13
2022-10-13T12:31:59.551Z,5.57
2022-10-13T12:34:32.817Z,6.60
2022-10-13T12:37:06.654Z,5.87
2022-10-13T12:39:36.067Z,5.60
2022-10-13T12:42:06.425Z,5.40
2022-10-13T12:44:33.631Z,5.77
2022-10-13T12:47:03.718Z,6.03
2022-10-13T12:49:33.427Z,6.87
2022-10-13T12:52:09.330Z,7.10
2022-10-13T12:54:47.998Z,7.17
2022-10-13T12:57:19.950Z,7.43
2022-10-13T12:59:47.755Z,7.23
2022-10-13T13:02:25.380Z,6.40
2022-10-13T13:04:52.053Z,6.63
2022-10-13T13:07:33.492Z,7.30
2022-10-13T13:10:16.429Z,7.40
2022-10-13T13:12:44.413Z,7.10
2022-10-13T13:15:24.694Z,7.70
2022-10-13T13:17:59.174Z,7.90
2022-10-13T13:20:30.111Z,8.20
2022-10-13T13:22:57.296Z,7.10
2022-10-13T13:25:24.547Z,8.17
2022-10-13T13:27:51.996Z,7.90
2022-10-13T13:30:24.140Z,8.23
2022-10-13T13:32:51.479Z,7.60
2022-10-13T13:35:18.589Z,9.63
2022-10-13T13:37:49.904Z,8.40
2022-10-13T13:40:25.143Z,10.60
2022-10-13T13:42:52.268Z,9.33
2022-10-13T13:45:21.186Z,8.27
2022-10-13T13:47:48.638Z,8.20
2022-10-13T13:50:21.977Z,8.50
2022-10-13T13:52:48.873Z,8.80
2022-10-13T13:55:15.761Z,8.93
2022-10-13T13:57:44.212Z,9.40
2022-10-13T14:00:12.338Z,9.13
2022-10-13T14:02:39.901Z,9.43
2022-10-13T14:05:07.623Z,9.20
2022-10-13T14:07:34.670Z,8.90
2022-10-13T14:10:02.343Z,9.90
2022-10-13T14:12:30.780Z,8.17
2022-10-13T14:14:58.491Z,9.30
2022-10-13T14:17:26.502Z,9.63
2022-10-13T14:19:53.270Z,9.30
2022-10-13T14:22:20.980Z,10.47
2022-10-13T14:24:48.086Z,8.90
2022-10-13T14:27:14.903Z,10.93
2022-10-13T14:29:41.646Z,10.53
2022-10-13T14:32:08.433Z,10.30
2022-10-13T14:34:35.389Z,10.27
2022-10-13T14:37:02.207Z,10.23
2022-10-13T14:39:28.994Z,12.10
2022-10-13T14:41:55.780Z,13.63
2022-10-13T14:44:26.734Z,12.70
2022-10-13T14:46:53.435Z,12.00
2022-10-13T14:49:20.279Z,10.80
2022-10-13T14:51:46.940Z,11.10
2022-10-13T14:54:13.750Z,10.33
2022-10-13T14:56:40.580Z,11.07
2022-10-13T14:59:07.701Z,12.10
2022-10-13T15:01:34.528Z,10.67
2022-10-13T15:04:02.860Z,11.03
2022-10-13T15:06:29.991Z,10.70
2022-10-13T15:08:57.031Z,10.67
2022-10-13T15:11:24.801Z,10.50
2022-10-13T15:13:52.171Z,9.57
2022-10-13T15:16:30.557Z,9.80
2022-10-13T15:18:57.274Z,9.70
2022-10-13T15:21:24.515Z,11.23
2022-10-13T15:23:51.708Z,9.80
2022-10-13T15:26:19.994Z,10.23
2022-10-13T15:28:49.477Z,11.23
2022-10-13T15:31:18.088Z,11.10
2022-10-13T15:33:51.698Z,10.40
2022-10-13T15:36:19.759Z,12.03
2022-10-13T15:38:46.672Z,11.07
2022-10-13T15:41:13.385Z,11.53
2022-10-13T15:43:40.554Z,11.03
2022-10-13T15:46:23.499Z,10.77
2022-10-13T15:48:51.807Z,11.30
2022-10-13T15:51:20.890Z,9.47
2022-10-13T15:53:48.386Z,10.60
2022-10-13T15:56:15.723Z,9.60
2022-10-13T15:58:42.581Z,11.20
2022-10-13T16:01:11.559Z,9.53
2022-10-13T16:03:38.947Z,10.43
2022-10-13T16:06:08.797Z,9.50
2022-10-13T16:08:40.577Z,10.10
2022-10-13T16:11:09.118Z,12.93
2022-10-13T16:13:35.806Z,10.47
2022-10-13T16:16:02.906Z,9.63
2022-10-13T16:18:31.313Z,10.77
2022-10-13T16:20:58.110Z,11.40
2022-10-13T16:23:25.484Z,10.47
2022-10-13T16:25:52.312Z,11.43
2022-10-13T16:28:19.241Z,10.00
2022-10-13T16:30:46.043Z,10.30
2022-10-13T16:33:12.785Z,10.77
2022-10-13T16:35:39.643Z,10.13
2022-10-13T16:38:06.424Z,10.97
2022-10-13T16:40:33.134Z,10.87
2022-10-13T16:42:59.864Z,11.30
2022-10-13T16:45:47.998Z,11.37
2022-10-13T16:48:13.260Z,10.27
2022-10-13T16:50:40.057Z,10.87
2022-10-13T16:53:06.753Z,10.43
2022-10-13T16:55:33.491Z,12.07
2022-10-13T16:58:00.170Z,12.33
2022-10-13T17:00:27.141Z,12.07
2022-10-13T17:02:54.972Z,11.60
2022-10-13T17:05:21.646Z,11.80
2022-10-13T17:07:48.347Z,11.47
2022-10-13T17:10:15.497Z,12.23
2022-10-13T17:12:42.217Z,12.30
2022-10-13T17:15:09.597Z,11.97
2022-10-13T17:17:37.050Z,11.30
2022-10-13T17:20:04.271Z,11.63
2022-10-13T17:22:31.191Z,13.53
2022-10-13T17:24:58.040Z,12.80
2022-10-13T17:27:25.203Z,13.10
2022-10-13T17:29:54.871Z,13.10
2022-10-13T17:32:22.201Z,12.43
2022-10-13T17:34:48.873Z,12.90
2022-10-13T17:37:15.700Z,12.63
2022-10-13T17:39:42.460Z,12.50
2022-10-13T17:42:09.169Z,11.30
2022-10-13T17:44:35.963Z,11.83
2022-10-13T17:47:02.819Z,11.70
2022-10-13T17:49:29.467Z,11.70
2022-10-13T17:51:56.457Z,12.47
2022-10-13T17:54:23.292Z,12.57
2022-10-13T17:56:50.847Z,13.67
2022-10-13T17:59:18.016Z,13.43
2022-10-13T18:01:45.342Z,13.93
2022-10-13T18:04:15.094Z,13.47
2022-10-13T18:06:45.557Z,12.60
2022-10-13T18:09:15.523Z,15.10
2022-10-13T18:11:48.763Z,13.67
2022-10-13T18:14:17.107Z,14.40
2022-10-13T18:16:44.047Z,14.10
2022-10-13T18:19:11.045Z,14.63
2022-10-13T18:21:37.875Z,14.53
2022-10-13T18:24:04.964Z,15.30
2022-10-13T18:26:35.659Z,14.83
2022-10-13T18:29:03.726Z,14.50
2022-10-13T18:31:33.175Z,14.60
2022-10-13T18:34:03.046Z,15.10
2022-10-13T18:36:35.698Z,12.40
2022-10-13T18:39:08.265Z,13.00
2022-10-13T18:41:37.183Z,14.20
2022-10-13T18:44:04.331Z,9.67
2022-10-13T18:46:35.609Z,10.17
2022-10-13T18:49:03.593Z,9.33
2022-10-13T18:51:35.912Z,9.27
2022-10-13T18:54:03.541Z,9.60
2022-10-13T18:56:32.316Z,11.10
2022-10-13T18:59:01.280Z,11.00
2022-10-13T19:01:30.717Z,10.80
2022-10-13T19:03:58.023Z,11.07
2022-10-13T19:06:27.133Z,10.30
2022-10-13T19:09:08.278Z,10.30
2022-10-13T19:11:35.352Z,10.73
2022-10-13T19:14:02.705Z,11.73
2022-10-13T19:16:32.018Z,11.03
2022-10-13T19:18:58.735Z,10.20
2022-10-13T19:21:25.805Z,11.00
2022-10-13T19:23:53.008Z,10.23
2022-10-13T19:26:25.329Z,9.47
2022-10-13T19:29:00.342Z,9.00
2022-10-13T19:31:29.520Z,8.37
2022-10-13T19:33:57.090Z,8.53
2022-10-13T19:36:32.530Z,8.10
2022-10-13T19:39:00.434Z,8.00
2022-10-13T19:41:29.911Z,8.87
2022-10-13T19:43:56.775Z,13.10
2022-10-13T19:46:23.577Z,8.97
2022-10-13T19:48:50.599Z,9.07
2022-10-13T19:51:17.658Z,7.87
2022-10-13T19:53:44.938Z,8.17
2022-10-13T19:56:27.804Z,6.20
2022-10-13T19:58:54.931Z,7.77
2022-10-13T20:01:22.636Z,6.37
2022-10-13T20:03:49.853Z,6.10
2022-10-13T20:06:17.765Z,5.90
2022-10-13T20:08:47.472Z,6.33
2022-10-13T20:11:23.374Z,6.63
2022-10-13T20:13:51.575Z,5.77
2022-10-13T20:16:21.765Z,5.30
2022-10-13T20:18:55.823Z,7.37
2022-10-13T20:21:23.676Z,6.07
2022-10-13T20:23:50.690Z,6.17
2022-10-13T20:26:18.177Z,6.27
2022-10-13T20:28:46.523Z,6.03
2022-10-13T20:31:15.160Z,6.93
2022-10-13T20:33:42.298Z,6.73
2022-10-13T20:36:12.902Z,6.43
2022-10-13T20:38:39.739Z,7.37
2022-10-13T20:41:08.267Z,8.10
2022-10-13T20:43:35.976Z,7.10
2022-10-13T20:46:06.268Z,7.10
2022-10-13T20:48:57.731Z,6.10
2022-10-13T20:51:23.346Z,6.53
2022-10-13T20:53:50.050Z,5.77
2022-10-13T20:56:20.214Z,4.97
2022-10-13T20:58:47.006Z,6.80
2022-10-13T21:01:14.768Z,5.30
2022-10-13T21:03:41.627Z,5.47
2022-10-13T21:06:11.099Z,5.70
2022-10-13T21:08:37.967Z,5.40
2022-10-13T21:11:10.578Z,5.60
2022-10-13T21:13:39.039Z,5.73
2022-10-13T21:16:14.717Z,5.57
2022-10-13T21:18:47.864Z,5.37
2022-10-13T21:21:17.103Z,8.00
2022-10-13T21:23:43.898Z,6.70
2022-10-13T21:26:10.591Z,6.00
2022-10-13T21:28:38.787Z,6.20
2022-10-13T21:31:07.968Z,6.80
2022-10-13T21:33:36.712Z,6.00
2022-10-13T21:36:08.683Z,5.90
2022-10-13T21:38:35.730Z,5.37
2022-10-13T21:41:09.925Z,5.50
2022-10-13T21:43:37.214Z,5.17
2022-10-13T21:46:10.025Z,5.13
2022-10-13T21:48:37.166Z,5.37
2022-10-13T21:51:30.344Z,4.80
2022-10-13T21:54:00.561Z,4.80
2022-10-13T21:56:28.514Z,5.10
2022-10-13T21:58:56.150Z,4.07
2022-10-13T22:01:23.349Z,4.67
2022-10-13T22:03:54.025Z,4.93
2022-10-13T22:06:21.119Z,4.83
2022-10-13T22:08:50.078Z,5.17
2022-10-13T22:11:18.191Z,4.70
2022-10-13T22:13:45.247Z,5.43
2022-10-13T22:16:16.420Z,4.60
2022-10-13T22:18:43.695Z,5.20
2022-10-13T22:21:17.303Z,5.33
2022-10-13T22:23:44.886Z,5.47
2022-10-13T22:26:12.735Z,5.80
2022-10-13T22:28:39.939Z,6.30
2022-10-13T22:31:08.318Z,6.27
2022-10-13T22:33:36.325Z,7.40
2022-10-13T22:36:17.365Z,6.43
2022-10-13T22:38:45.892Z,5.90
2022-10-13T22:41:14.616Z,5.90
2022-10-13T22:43:44.940Z,7.03
2022-10-13T22:46:13.517Z,8.80
2022-10-13T22:48:41.761Z,6.20
2022-10-13T22:51:09.120Z,7.27
2022-10-13T22:53:35.774Z,7.17
2022-10-13T22:56:09.822Z,8.10
2022-10-13T22:58:36.584Z,7.60
2022-10-13T23:01:12.487Z,7.70
2022-10-13T23:03:39.832Z,7.33
2022-10-13T23:06:08.834Z,7.37
2022-10-13T23:08:35.676Z,7.97
2022-10-13T23:11:02.404Z,7.70
2022-10-13T23:13:29.185Z,9.07
2022-10-13T23:16:05.303Z,9.27
2022-10-13T23:18:32.100Z,8.63
2022-10-13T23:20:58.826Z,8.27
2022-10-13T23:23:25.569Z,8.97
2022-10-13T23:25:52.247Z,9.50
2022-10-13T23:28:19.090Z,8.77
2022-10-13T23:30:45.810Z,9.10
2022-10-13T23:33:12.551Z,8.90
2022-10-13T23:35:39.285Z,9.50
2022-10-13T23:38:06.015Z,8.27
2022-10-13T23:40:33.715Z,9.20
2022-10-13T23:43:00.436Z,9.07
2022-10-13T23:45:27.276Z,8.60
2022-10-13T23:47:53.959Z,8.83
2022-10-13T23:50:20.679Z,8.47
2022-10-13T23:52:47.353Z,8.97
2022-10-13T23:55:14.108Z,9.13
2022-10-13T23:57:40.834Z,8.33
